sensor_id;sensor_type;location;lat;lon;timestamp;pressure;altitude;pressure_sealevel;temperature;humidity
63347;BME280;49472;49.880;8.650;2022-09-21T00:01:58;100880.25;;;33.26;23.99
63347;BME280;49472;49.880;8.650;2022-09-21T00:04:23;100896.44;;;32.96;24.97
63347;BME280;49472;49.880;8.650;2022-09-21T00:06:48;100894.22;;;33.04;24.57
63347;BME280;49472;49.880;8.650;2022-09-21T00:09:14;100898.50;;;32.77;24.96
63347;BME280;49472;49.880;8.650;2022-09-21T00:11:39;100901.84;;;32.55;25.03
63347;BME280;49472;49.880;8.650;2022-09-21T00:14:09;100904.66;;;32.65;24.99
63347;BME280;49472;49.880;8.650;2022-09-21T00:16:35;100897.78;;;32.81;24.85
63347;BME280;49472;49.880;8.650;2022-09-21T00:19:00;100897.03;;;32.98;24.47
63347;BME280;49472;49.880;8.650;2022-09-21T00:21:26;100897.22;;;33.08;24.25
63347;BME280;49472;49.880;8.650;2022-09-21T00:23:52;100892.97;;;32.78;24.91
63347;BME280;49472;49.880;8.650;2022-09-21T00:26:23;100898.34;;;32.83;24.94
63347;BME280;49472;49.880;8.650;2022-09-21T00:29:02;100895.03;;;33.05;24.46
63347;BME280;49472;49.880;8.650;2022-09-21T00:31:29;100901.13;;;33.22;24.40
63347;BME280;49472;49.880;8.650;2022-09-21T00:33:56;100898.72;;;33.38;24.00
63347;BME280;49472;49.880;8.650;2022-09-21T00:36:24;100893.25;;;33.44;24.12
63347;BME280;49472;49.880;8.650;2022-09-21T00:38:59;100896.06;;;33.55;24.18
63347;BME280;49472;49.880;8.650;2022-09-21T00:41:29;100895.34;;;33.42;24.44
63347;BME280;49472;49.880;8.650;2022-09-21T00:44:30;100897.56;;;33.50;24.09
63347;BME280;49472;49.880;8.650;2022-09-21T00:47:09;100899.13;;;33.46;23.57
63347;BME280;49472;49.880;8.650;2022-09-21T00:49:36;100898.00;;;33.08;24.42
63347;BME280;49472;49.880;8.650;2022-09-21T00:52:04;100910.81;;;33.50;23.52
63347;BME280;49472;49.880;8.650;2022-09-21T00:54:41;100897.91;;;33.37;24.06
63347;BME280;49472;49.880;8.650;2022-09-21T00:57:08;100903.78;;;33.22;23.71
63347;BME280;49472;49.880;8.650;2022-09-21T00:59:36;100897.84;;;33.32;24.11
63347;BME280;49472;49.880;8.650;2022-09-21T01:02:03;100902.03;;;33.28;23.86
63347;BME280;49472;49.880;8.650;2022-09-21T01:04:29;100899.84;;;33.25;23.97
63347;BME280;49472;49.880;8.650;2022-09-21T01:06:56;100899.78;;;33.03;24.15
63347;BME280;49472;49.880;8.650;2022-09-21T01:09:25;100907.25;;;33.06;24.46
63347;BME280;49472;49.880;8.650;2022-09-21T01:12:10;100911.47;;;32.90;24.55
63347;BME280;49472;49.880;8.650;2022-09-21T01:18:10;100914.28;;;33.00;24.14
63347;BME280;49472;49.880;8.650;2022-09-21T01:23:54;100914.66;;;32.75;24.47
63347;BME280;49472;49.880;8.650;2022-09-21T01:29:48;100908.16;;;32.83;24.19
63347;BME280;49472;49.880;8.650;2022-09-21T01:32:26;100915.84;;;32.84;24.13
63347;BME280;49472;49.880;8.650;2022-09-21T01:35:00;100909.78;;;33.01;24.32
63347;BME280;49472;49.880;8.650;2022-09-21T01:37:36;100917.22;;;32.87;24.08
63347;BME280;49472;49.880;8.650;2022-09-21T01:40:07;100918.75;;;33.00;24.15
63347;BME280;49472;49.880;8.650;2022-09-21T01:42:37;100920.44;;;32.89;23.84
63347;BME280;49472;49.880;8.650;2022-09-21T01:45:06;100909.56;;;32.57;24.74
63347;BME280;49472;49.880;8.650;2022-09-21T01:47:35;100912.75;;;32.88;23.97
63347;BME280;49472;49.880;8.650;2022-09-21T01:50:05;100913.13;;;32.51;24.74
63347;BME280;49472;49.880;8.650;2022-09-21T01:53:08;100923.75;;;32.39;24.65
63347;BME280;49472;49.880;8.650;2022-09-21T01:55:45;100920.56;;;32.25;24.75
63347;BME280;49472;49.880;8.650;2022-09-21T01:58:23;100915.72;;;32.34;25.36
63347;BME280;49472;49.880;8.650;2022-09-21T02:00:53;100913.56;;;32.19;24.89
63347;BME280;49472;49.880;8.650;2022-09-21T02:03:50;100913.97;;;32.39;25.03
63347;BME280;49472;49.880;8.650;2022-09-21T02:06:18;100913.09;;;32.10;25.00
63347;BME280;49472;49.880;8.650;2022-09-21T02:08:45;100917.44;;;32.28;24.56
63347;BME280;49472;49.880;8.650;2022-09-21T02:11:11;100912.53;;;31.85;25.38
63347;BME280;49472;49.880;8.650;2022-09-21T02:13:44;100911.88;;;32.01;24.90
63347;BME280;49472;49.880;8.650;2022-09-21T02:16:31;100918.06;;;32.07;24.68
63347;BME280;49472;49.880;8.650;2022-09-21T02:22:06;100916.22;;;31.95;25.10
63347;BME280;49472;49.880;8.650;2022-09-21T02:24:43;100917.03;;;31.84;24.92
63347;BME280;49472;49.880;8.650;2022-09-21T02:27:15;100914.28;;;32.03;25.07
63347;BME280;49472;49.880;8.650;2022-09-21T02:29:50;100913.69;;;31.42;25.72
63347;BME280;49472;49.880;8.650;2022-09-21T02:32:31;100915.91;;;32.04;24.47
63347;BME280;49472;49.880;8.650;2022-09-21T02:43:44;100909.28;;;32.18;24.14
63347;BME280;49472;49.880;8.650;2022-09-21T02:46:24;100907.72;;;32.05;24.68
63347;BME280;49472;49.880;8.650;2022-09-21T02:48:58;100913.75;;;32.29;24.30
63347;BME280;49472;49.880;8.650;2022-09-21T02:51:36;100910.06;;;32.30;24.08
63347;BME280;49472;49.880;8.650;2022-09-21T02:54:05;100909.91;;;31.96;24.86
63347;BME280;49472;49.880;8.650;2022-09-21T02:56:32;100914.38;;;31.84;25.12
63347;BME280;49472;49.880;8.650;2022-09-21T02:59:02;100916.22;;;32.07;24.36
63347;BME280;49472;49.880;8.650;2022-09-21T03:01:30;100913.13;;;31.75;25.23
63347;BME280;49472;49.880;8.650;2022-09-21T03:03:57;100909.91;;;31.85;24.73
63347;BME280;49472;49.880;8.650;2022-09-21T03:06:22;100911.41;;;31.69;25.43
63347;BME280;49472;49.880;8.650;2022-09-21T03:08:48;100908.66;;;31.75;24.64
63347;BME280;49472;49.880;8.650;2022-09-21T03:11:18;100906.09;;;31.57;25.61
63347;BME280;49472;49.880;8.650;2022-09-21T03:13:44;100910.28;;;31.53;25.29
63347;BME280;49472;49.880;8.650;2022-09-21T03:16:12;100907.50;;;31.48;25.55
63347;BME280;49472;49.880;8.650;2022-09-21T03:18:37;100906.56;;;31.54;25.58
63347;BME280;49472;49.880;8.650;2022-09-21T03:21:04;100909.38;;;31.05;26.02
63347;BME280;49472;49.880;8.650;2022-09-21T03:23:30;100902.72;;;31.26;25.51
63347;BME280;49472;49.880;8.650;2022-09-21T03:25:55;100918.38;;;31.28;25.48
63347;BME280;49472;49.880;8.650;2022-09-21T03:28:21;100915.59;;;31.34;25.37
63347;BME280;49472;49.880;8.650;2022-09-21T03:30:50;100915.00;;;31.63;25.64
63347;BME280;49472;49.880;8.650;2022-09-21T03:33:16;100918.97;;;31.30;25.57
63347;BME280;49472;49.880;8.650;2022-09-21T03:35:43;100922.50;;;31.24;25.97
63347;BME280;49472;49.880;8.650;2022-09-21T03:38:09;100920.47;;;31.38;25.70
63347;BME280;49472;49.880;8.650;2022-09-21T03:40:34;100928.69;;;31.29;25.60
63347;BME280;49472;49.880;8.650;2022-09-21T03:42:59;100924.28;;;31.65;25.44
63347;BME280;49472;49.880;8.650;2022-09-21T03:45:25;100924.78;;;31.32;26.03
63347;BME280;49472;49.880;8.650;2022-09-21T03:47:54;100924.75;;;31.50;25.21
63347;BME280;49472;49.880;8.650;2022-09-21T03:50:20;100926.22;;;31.46;25.23
63347;BME280;49472;49.880;8.650;2022-09-21T03:52:46;100920.47;;;31.49;25.73
63347;BME280;49472;49.880;8.650;2022-09-21T03:55:11;100927.84;;;31.59;25.17
63347;BME280;49472;49.880;8.650;2022-09-21T03:57:36;100922.78;;;31.46;25.31
63347;BME280;49472;49.880;8.650;2022-09-21T04:00:06;100927.50;;;31.67;25.23
63347;BME280;49472;49.880;8.650;2022-09-21T04:02:33;100929.81;;;31.40;25.71
63347;BME280;49472;49.880;8.650;2022-09-21T04:04:58;100934.31;;;31.09;25.94
63347;BME280;49472;49.880;8.650;2022-09-21T04:07:24;100933.47;;;31.51;25.45
63347;BME280;49472;49.880;8.650;2022-09-21T04:09:50;100937.97;;;31.50;25.16
63347;BME280;49472;49.880;8.650;2022-09-21T04:12:16;100929.09;;;31.56;25.52
63347;BME280;49472;49.880;8.650;2022-09-21T04:14:41;100926.59;;;31.50;25.26
63347;BME280;49472;49.880;8.650;2022-09-21T04:17:06;100931.41;;;31.53;25.37
63347;BME280;49472;49.880;8.650;2022-09-21T04:19:32;100940.31;;;31.28;25.42
63347;BME280;49472;49.880;8.650;2022-09-21T04:21:57;100942.56;;;31.55;24.99
63347;BME280;49472;49.880;8.650;2022-09-21T04:24:22;100938.53;;;31.41;25.64
63347;BME280;49472;49.880;8.650;2022-09-21T04:26:48;100943.13;;;31.03;25.89
63347;BME280;49472;49.880;8.650;2022-09-21T04:29:14;100936.38;;;31.07;25.91
63347;BME280;49472;49.880;8.650;2022-09-21T04:31:40;100939.59;;;31.21;25.87
63347;BME280;49472;49.880;8.650;2022-09-21T04:34:08;100932.91;;;31.49;25.64
63347;BME280;49472;49.880;8.650;2022-09-21T04:36:36;100939.72;;;31.26;25.57
63347;BME280;49472;49.880;8.650;2022-09-21T04:39:02;100942.75;;;31.30;25.89
63347;BME280;49472;49.880;8.650;2022-09-21T04:41:27;100938.75;;;31.51;24.96
63347;BME280;49472;49.880;8.650;2022-09-21T04:43:52;100937.50;;;31.53;25.19
63347;BME280;49472;49.880;8.650;2022-09-21T04:46:19;100941.34;;;31.27;25.74
63347;BME280;49472;49.880;8.650;2022-09-21T04:48:45;100940.97;;;31.12;25.47
63347;BME280;49472;49.880;8.650;2022-09-21T04:51:11;100945.31;;;31.06;25.50
63347;BME280;49472;49.880;8.650;2022-09-21T04:53:39;100942.81;;;31.23;25.00
63347;BME280;49472;49.880;8.650;2022-09-21T04:56:06;100942.44;;;31.08;25.87
63347;BME280;49472;49.880;8.650;2022-09-21T04:58:32;100949.25;;;30.85;25.67
63347;BME280;49472;49.880;8.650;2022-09-21T05:00:57;100954.00;;;30.95;25.88
63347;BME280;49472;49.880;8.650;2022-09-21T05:03:24;100951.56;;;30.82;25.49
63347;BME280;49472;49.880;8.650;2022-09-21T05:05:54;100956.78;;;31.00;25.75
63347;BME280;49472;49.880;8.650;2022-09-21T05:08:22;100957.97;;;31.04;24.97
63347;BME280;49472;49.880;8.650;2022-09-21T05:11:10;100967.22;;;30.95;25.84
63347;BME280;49472;49.880;8.650;2022-09-21T05:13:37;100962.00;;;30.58;26.15
63347;BME280;49472;49.880;8.650;2022-09-21T05:16:03;100962.84;;;30.89;25.20
63347;BME280;49472;49.880;8.650;2022-09-21T05:18:28;100968.81;;;30.96;25.33
63347;BME280;49472;49.880;8.650;2022-09-21T05:20:57;100965.19;;;31.09;25.19
63347;BME280;49472;49.880;8.650;2022-09-21T05:23:24;100974.22;;;30.89;25.26
63347;BME280;49472;49.880;8.650;2022-09-21T05:25:49;100970.13;;;31.05;25.38
63347;BME280;49472;49.880;8.650;2022-09-21T05:28:18;100978.38;;;31.09;25.27
63347;BME280;49472;49.880;8.650;2022-09-21T05:30:47;100979.84;;;30.93;25.41
63347;BME280;49472;49.880;8.650;2022-09-21T05:33:18;100988.28;;;30.65;25.80
63347;BME280;49472;49.880;8.650;2022-09-21T05:36:24;100984.03;;;30.82;25.38
63347;BME280;49472;49.880;8.650;2022-09-21T05:38:51;100988.81;;;30.74;26.00
63347;BME280;49472;49.880;8.650;2022-09-21T05:41:17;100991.16;;;30.82;25.67
63347;BME280;49472;49.880;8.650;2022-09-21T05:43:42;100980.16;;;30.66;25.81
63347;BME280;49472;49.880;8.650;2022-09-21T05:46:24;100982.25;;;30.95;25.61
63347;BME280;49472;49.880;8.650;2022-09-21T05:48:59;100987.28;;;30.84;25.29
63347;BME280;49472;49.880;8.650;2022-09-21T05:52:01;100993.03;;;30.75;25.81
63347;BME280;49472;49.880;8.650;2022-09-21T06:05:10;101000.69;;;30.83;25.93
63347;BME280;49472;49.880;8.650;2022-09-21T06:07:36;101006.47;;;30.91;25.17
63347;BME280;49472;49.880;8.650;2022-09-21T06:10:02;101011.25;;;30.83;25.32
63347;BME280;49472;49.880;8.650;2022-09-21T06:12:27;101012.88;;;30.84;25.55
63347;BME280;49472;49.880;8.650;2022-09-21T06:14:53;101009.78;;;30.87;25.92
63347;BME280;49472;49.880;8.650;2022-09-21T06:17:21;101008.56;;;31.01;25.32
63347;BME280;49472;49.880;8.650;2022-09-21T06:19:46;101010.22;;;31.14;25.48
63347;BME280;49472;49.880;8.650;2022-09-21T06:22:11;101011.13;;;31.08;25.58
63347;BME280;49472;49.880;8.650;2022-09-21T06:24:36;101019.84;;;31.08;25.30
63347;BME280;49472;49.880;8.650;2022-09-21T06:27:02;101016.28;;;31.03;25.92
63347;BME280;49472;49.880;8.650;2022-09-21T06:29:27;101020.69;;;30.90;25.48
63347;BME280;49472;49.880;8.650;2022-09-21T06:31:53;101022.00;;;31.00;25.52
63347;BME280;49472;49.880;8.650;2022-09-21T06:34:18;101021.13;;;31.06;25.48
63347;BME280;49472;49.880;8.650;2022-09-21T06:36:43;101018.50;;;30.69;25.84
63347;BME280;49472;49.880;8.650;2022-09-21T06:39:10;101028.09;;;31.00;25.77
63347;BME280;49472;49.880;8.650;2022-09-21T06:41:35;101018.00;;;31.09;25.47
63347;BME280;49472;49.880;8.650;2022-09-21T06:44:01;101022.63;;;31.13;25.67
63347;BME280;49472;49.880;8.650;2022-09-21T06:46:26;101017.06;;;31.33;25.74
63347;BME280;49472;49.880;8.650;2022-09-21T06:48:52;101028.69;;;31.74;25.18
63347;BME280;49472;49.880;8.650;2022-09-21T06:51:18;101028.88;;;31.61;25.23
63347;BME280;49472;49.880;8.650;2022-09-21T06:53:45;101026.47;;;31.60;25.94
63347;BME280;49472;49.880;8.650;2022-09-21T06:56:11;101021.78;;;31.73;25.01
63347;BME280;49472;49.880;8.650;2022-09-21T06:58:37;101026.75;;;32.05;25.09
63347;BME280;49472;49.880;8.650;2022-09-21T07:03:31;101031.34;;;31.98;25.33
63347;BME280;49472;49.880;8.650;2022-09-21T07:05:56;101027.47;;;32.24;24.49
63347;BME280;49472;49.880;8.650;2022-09-21T07:08:22;101033.91;;;32.16;24.90
63347;BME280;49472;49.880;8.650;2022-09-21T07:10:48;101034.47;;;32.18;25.00
63347;BME280;49472;49.880;8.650;2022-09-21T07:13:13;101028.94;;;32.08;25.11
63347;BME280;49472;49.880;8.650;2022-09-21T07:15:40;101035.63;;;31.99;25.09
63347;BME280;49472;49.880;8.650;2022-09-21T07:18:12;101035.16;;;32.26;25.12
63347;BME280;49472;49.880;8.650;2022-09-21T07:20:39;101037.00;;;32.25;25.27
63347;BME280;49472;49.880;8.650;2022-09-21T07:23:17;101040.22;;;32.51;24.57
63347;BME280;49472;49.880;8.650;2022-09-21T07:25:44;101044.25;;;32.18;25.27
63347;BME280;49472;49.880;8.650;2022-09-21T07:28:11;101046.66;;;32.55;25.00
63347;BME280;49472;49.880;8.650;2022-09-21T07:30:38;101042.50;;;32.59;25.07
63347;BME280;49472;49.880;8.650;2022-09-21T07:33:04;101044.59;;;32.57;25.26
63347;BME280;49472;49.880;8.650;2022-09-21T07:35:30;101040.22;;;32.51;25.35
63347;BME280;49472;49.880;8.650;2022-09-21T07:38:03;101042.41;;;32.42;25.48
63347;BME280;49472;49.880;8.650;2022-09-21T07:40:29;101040.53;;;32.66;25.14
63347;BME280;49472;49.880;8.650;2022-09-21T07:42:59;101050.81;;;33.03;24.85
63347;BME280;49472;49.880;8.650;2022-09-21T07:45:26;101047.59;;;32.89;24.61
63347;BME280;49472;49.880;8.650;2022-09-21T07:47:51;101046.22;;;32.86;25.21
63347;BME280;49472;49.880;8.650;2022-09-21T07:50:21;101044.06;;;32.72;25.38
63347;BME280;49472;49.880;8.650;2022-09-21T07:52:46;101041.91;;;32.97;24.90
63347;BME280;49472;49.880;8.650;2022-09-21T07:55:12;101047.78;;;32.99;24.98
63347;BME280;49472;49.880;8.650;2022-09-21T07:57:38;101048.44;;;33.18;24.60
63347;BME280;49472;49.880;8.650;2022-09-21T08:00:22;101047.53;;;33.13;25.02
63347;BME280;49472;49.880;8.650;2022-09-21T08:02:48;101041.88;;;33.38;24.71
63347;BME280;49472;49.880;8.650;2022-09-21T08:05:13;101045.84;;;33.06;25.42
63347;BME280;49472;49.880;8.650;2022-09-21T08:07:39;101049.50;;;33.34;25.25
63347;BME280;49472;49.880;8.650;2022-09-21T08:10:05;101044.38;;;33.44;24.90
63347;BME280;49472;49.880;8.650;2022-09-21T08:12:30;101044.25;;;33.68;24.81
63347;BME280;49472;49.880;8.650;2022-09-21T08:14:56;101047.06;;;33.95;24.67
63347;BME280;49472;49.880;8.650;2022-09-21T08:17:21;101043.97;;;33.36;24.89
63347;BME280;49472;49.880;8.650;2022-09-21T08:19:48;101052.38;;;33.95;24.74
63347;BME280;49472;49.880;8.650;2022-09-21T08:22:13;101044.97;;;33.97;24.60
63347;BME280;49472;49.880;8.650;2022-09-21T08:24:39;101048.22;;;34.38;24.38
63347;BME280;49472;49.880;8.650;2022-09-21T08:27:05;101054.22;;;34.11;24.69
63347;BME280;49472;49.880;8.650;2022-09-21T08:29:32;101052.94;;;33.80;24.74
63347;BME280;49472;49.880;8.650;2022-09-21T08:31:57;101051.09;;;33.35;25.10
63347;BME280;49472;49.880;8.650;2022-09-21T08:34:22;101053.81;;;33.86;24.80
63347;BME280;49472;49.880;8.650;2022-09-21T08:36:48;101052.47;;;34.17;24.67
63347;BME280;49472;49.880;8.650;2022-09-21T08:39:13;101055.84;;;34.34;24.27
63347;BME280;49472;49.880;8.650;2022-09-21T08:44:26;101048.34;;;34.70;24.36
63347;BME280;49472;49.880;8.650;2022-09-21T08:47:04;101053.03;;;34.85;24.08
63347;BME280;49472;49.880;8.650;2022-09-21T08:49:34;101050.88;;;34.38;24.56
63347;BME280;49472;49.880;8.650;2022-09-21T08:52:13;101043.78;;;34.88;24.03
63347;BME280;49472;49.880;8.650;2022-09-21T08:57:36;101042.41;;;35.34;23.87
63347;BME280;49472;49.880;8.650;2022-09-21T09:00:06;101040.88;;;35.43;23.93
63347;BME280;49472;49.880;8.650;2022-09-21T09:03:00;101042.28;;;35.19;24.09
63347;BME280;49472;49.880;8.650;2022-09-21T09:08:55;101037.75;;;35.19;23.79
63347;BME280;49472;49.880;8.650;2022-09-21T09:20:09;101036.47;;;35.92;23.38
63347;BME280;49472;49.880;8.650;2022-09-21T09:22:49;101036.66;;;36.22;22.96
63347;BME280;49472;49.880;8.650;2022-09-21T09:25:20;101039.28;;;35.75;23.25
63347;BME280;49472;49.880;8.650;2022-09-21T09:27:50;101033.56;;;35.29;23.80
63347;BME280;49472;49.880;8.650;2022-09-21T09:30:20;101039.88;;;35.50;23.41
63347;BME280;49472;49.880;8.650;2022-09-21T09:33:00;101031.63;;;35.51;23.71
63347;BME280;49472;49.880;8.650;2022-09-21T09:35:30;101030.19;;;35.38;23.05
63347;BME280;49472;49.880;8.650;2022-09-21T09:38:13;101030.38;;;35.96;23.27
63347;BME280;49472;49.880;8.650;2022-09-21T09:43:24;101023.91;;;35.50;23.83
63347;BME280;49472;49.880;8.650;2022-09-21T09:46:48;101022.84;;;34.91;23.92
63347;BME280;49472;49.880;8.650;2022-09-21T09:49:04;101016.44;;;35.14;24.00
63347;BME280;49472;49.880;8.650;2022-09-21T09:51:33;101013.28;;;34.95;24.47
63347;BME280;49472;49.880;8.650;2022-09-21T09:54:01;101014.41;;;35.96;23.54
63347;BME280;49472;49.880;8.650;2022-09-21T09:56:30;101004.47;;;36.29;22.85
63347;BME280;49472;49.880;8.650;2022-09-21T09:58:57;101010.63;;;35.92;23.20
63347;BME280;49472;49.880;8.650;2022-09-21T10:01:42;101011.91;;;37.05;22.39
63347;BME280;49472;49.880;8.650;2022-09-21T10:04:15;101012.13;;;36.83;23.00
63347;BME280;49472;49.880;8.650;2022-09-21T10:06:44;101008.78;;;36.45;23.01
63347;BME280;49472;49.880;8.650;2022-09-21T10:09:26;101005.78;;;37.10;22.42
63347;BME280;49472;49.880;8.650;2022-09-21T10:11:53;101012.41;;;36.87;23.23
63347;BME280;49472;49.880;8.650;2022-09-21T10:14:23;101004.00;;;36.47;23.53
63347;BME280;49472;49.880;8.650;2022-09-21T10:16:50;101007.13;;;37.33;22.48
63347;BME280;49472;49.880;8.650;2022-09-21T10:19:19;100997.06;;;36.41;23.27
63347;BME280;49472;49.880;8.650;2022-09-21T10:21:46;101002.94;;;36.48;22.84
63347;BME280;49472;49.880;8.650;2022-09-21T10:24:22;101002.84;;;37.27;22.67
63347;BME280;49472;49.880;8.650;2022-09-21T10:26:53;101005.72;;;37.92;22.09
63347;BME280;49472;49.880;8.650;2022-09-21T10:32:02;100994.03;;;37.67;21.77
63347;BME280;49472;49.880;8.650;2022-09-21T10:34:30;100991.84;;;37.90;21.72
63347;BME280;49472;49.880;8.650;2022-09-21T10:36:58;101000.13;;;37.83;21.63
63347;BME280;49472;49.880;8.650;2022-09-21T10:42:01;101007.16;;;38.39;21.28
63347;BME280;49472;49.880;8.650;2022-09-21T10:44:48;100994.47;;;38.70;21.32
63347;BME280;49472;49.880;8.650;2022-09-21T10:47:15;100992.00;;;38.24;21.35
63347;BME280;49472;49.880;8.650;2022-09-21T10:49:53;100994.03;;;38.53;20.95
63347;BME280;49472;49.880;8.650;2022-09-21T10:52:22;100986.47;;;39.04;21.07
63347;BME280;49472;49.880;8.650;2022-09-21T10:54:49;100988.56;;;39.13;20.88
63347;BME280;49472;49.880;8.650;2022-09-21T10:57:19;100982.66;;;38.76;20.74
63347;BME280;49472;49.880;8.650;2022-09-21T10:59:44;100974.00;;;38.95;20.51
63347;BME280;49472;49.880;8.650;2022-09-21T11:02:40;100985.66;;;39.67;20.36
63347;BME280;49472;49.880;8.650;2022-09-21T11:05:09;100982.94;;;39.14;20.57
63347;BME280;49472;49.880;8.650;2022-09-21T11:07:44;100984.59;;;39.05;19.71
63347;BME280;49472;49.880;8.650;2022-09-21T11:10:23;100977.44;;;39.29;20.17
63347;BME280;49472;49.880;8.650;2022-09-21T11:15:46;100978.31;;;40.02;19.42
63347;BME280;49472;49.880;8.650;2022-09-21T11:20:49;100976.06;;;39.61;19.26
63347;BME280;49472;49.880;8.650;2022-09-21T11:28:28;100961.50;;;40.40;18.38
63347;BME280;49472;49.880;8.650;2022-09-21T11:31:15;100964.63;;;41.31;18.33
63347;BME280;49472;49.880;8.650;2022-09-21T11:39:30;100963.69;;;42.91;16.82
63347;BME280;49472;49.880;8.650;2022-09-21T11:42:13;100952.59;;;43.55;16.90
63347;BME280;49472;49.880;8.650;2022-09-21T11:44:52;100956.03;;;43.96;16.05
63347;BME280;49472;49.880;8.650;2022-09-21T12:15:57;100933.44;;;47.03;13.44
63347;BME280;49472;49.880;8.650;2022-09-21T12:25:57;100918.34;;;47.91;13.94
63347;BME280;49472;49.880;8.650;2022-09-21T12:28:56;100920.69;;;48.05;12.87
63347;BME280;49472;49.880;8.650;2022-09-21T12:31:34;100921.09;;;49.27;13.11
63347;BME280;49472;49.880;8.650;2022-09-21T12:34:09;100918.03;;;49.64;12.85
63347;BME280;49472;49.880;8.650;2022-09-21T12:36:41;100918.88;;;48.53;13.31
63347;BME280;49472;49.880;8.650;2022-09-21T12:39:28;100910.06;;;49.55;12.66
63347;BME280;49472;49.880;8.650;2022-09-21T12:42:03;100916.09;;;49.64;12.18
63347;BME280;49472;49.880;8.650;2022-09-21T12:44:38;100910.91;;;50.60;12.01
63347;BME280;49472;49.880;8.650;2022-09-21T12:52:56;100897.59;;;47.83;13.29
63347;BME280;49472;49.880;8.650;2022-09-21T12:58:37;100903.56;;;50.18;12.22
63347;BME280;49472;49.880;8.650;2022-09-21T13:00:58;100899.47;;;50.97;11.96
63347;BME280;49472;49.880;8.650;2022-09-21T13:03:57;100908.81;;;46.17;13.65
63347;BME280;49472;49.880;8.650;2022-09-21T13:08:51;100896.28;;;45.11;14.39
63347;BME280;49472;49.880;8.650;2022-09-21T13:11:19;100897.81;;;45.80;14.57
63347;BME280;49472;49.880;8.650;2022-09-21T13:13:58;100890.91;;;47.80;13.28
63347;BME280;49472;49.880;8.650;2022-09-21T13:16:37;100885.13;;;49.69;12.24
63347;BME280;49472;49.880;8.650;2022-09-21T13:21:38;100889.53;;;46.72;13.98
63347;BME280;49472;49.880;8.650;2022-09-21T13:24:06;100886.78;;;45.34;14.20
63347;BME280;49472;49.880;8.650;2022-09-21T13:26:54;100886.69;;;45.60;14.44
63347;BME280;49472;49.880;8.650;2022-09-21T13:34:42;100868.75;;;49.30;11.94
63347;BME280;49472;49.880;8.650;2022-09-21T13:44:59;100866.91;;;52.43;11.37
63347;BME280;49472;49.880;8.650;2022-09-21T13:47:31;100856.47;;;51.40;11.78
63347;BME280;49472;49.880;8.650;2022-09-21T13:50:00;100853.75;;;52.59;10.78
63347;BME280;49472;49.880;8.650;2022-09-21T13:52:49;100849.25;;;52.85;10.33
63347;BME280;49472;49.880;8.650;2022-09-21T13:55:20;100847.72;;;51.91;11.46
63347;BME280;49472;49.880;8.650;2022-09-21T13:57:49;100854.88;;;53.06;10.30
63347;BME280;49472;49.880;8.650;2022-09-21T14:02:44;100838.63;;;53.46;10.31
63347;BME280;49472;49.880;8.650;2022-09-21T14:10:47;100847.00;;;48.31;12.73
63347;BME280;49472;49.880;8.650;2022-09-21T14:13:42;100838.03;;;50.50;11.55
63347;BME280;49472;49.880;8.650;2022-09-21T14:18:53;100827.22;;;53.26;9.90
63347;BME280;49472;49.880;8.650;2022-09-21T14:21:19;100833.97;;;53.50;10.88
63347;BME280;49472;49.880;8.650;2022-09-21T14:29:25;100842.38;;;49.89;11.37
63347;BME280;49472;49.880;8.650;2022-09-21T14:31:55;100833.47;;;46.73;13.46
63347;BME280;49472;49.880;8.650;2022-09-21T14:34:26;100837.97;;;46.93;13.38
63347;BME280;49472;49.880;8.650;2022-09-21T14:36:56;100829.78;;;48.11;13.24
63347;BME280;49472;49.880;8.650;2022-09-21T14:39:29;100831.56;;;52.13;10.79
63347;BME280;49472;49.880;8.650;2022-09-21T14:41:59;100833.31;;;49.62;11.75
63347;BME280;49472;49.880;8.650;2022-09-21T14:44:28;100838.88;;;47.22;12.68
63347;BME280;49472;49.880;8.650;2022-09-21T15:00:48;100821.41;;;44.52;14.01
63347;BME280;49472;49.880;8.650;2022-09-21T15:05:55;100813.13;;;45.97;14.04
63347;BME280;49472;49.880;8.650;2022-09-21T15:16:27;100791.78;;;51.07;10.42
63347;BME280;49472;49.880;8.650;2022-09-21T15:19:04;100798.47;;;50.10;11.05
63347;BME280;49472;49.880;8.650;2022-09-21T15:21:34;100785.34;;;51.52;10.42
63347;BME280;49472;49.880;8.650;2022-09-21T15:24:20;100788.47;;;51.92;9.90
63347;BME280;49472;49.880;8.650;2022-09-21T15:26:48;100791.59;;;53.04;10.24
63347;BME280;49472;49.880;8.650;2022-09-21T15:29:25;100783.84;;;52.44;10.00
63347;BME280;49472;49.880;8.650;2022-09-21T15:31:52;100791.84;;;53.87;9.19
63347;BME280;49472;49.880;8.650;2022-09-21T15:34:18;100792.22;;;51.39;10.50
63347;BME280;49472;49.880;8.650;2022-09-21T15:36:43;100790.28;;;47.54;12.00
63347;BME280;49472;49.880;8.650;2022-09-21T15:39:29;100785.75;;;46.10;12.93
63347;BME280;49472;49.880;8.650;2022-09-21T15:42:14;100792.88;;;45.82;13.11
63347;BME280;49472;49.880;8.650;2022-09-21T15:44:42;100793.19;;;44.88;14.29
63347;BME280;49472;49.880;8.650;2022-09-21T15:47:14;100788.63;;;44.79;14.31
63347;BME280;49472;49.880;8.650;2022-09-21T15:49:41;100789.16;;;47.99;12.66
63347;BME280;49472;49.880;8.650;2022-09-21T15:52:21;100782.50;;;49.46;12.29
63347;BME280;49472;49.880;8.650;2022-09-21T15:54:54;100784.63;;;49.95;11.99
63347;BME280;49472;49.880;8.650;2022-09-21T15:57:31;100784.47;;;50.08;11.56
63347;BME280;49472;49.880;8.650;2022-09-21T16:00:29;100783.63;;;50.30;11.28
63347;BME280;49472;49.880;8.650;2022-09-21T16:03:03;100782.22;;;50.63;11.88
63347;BME280;49472;49.880;8.650;2022-09-21T16:05:32;100782.94;;;50.60;11.61
63347;BME280;49472;49.880;8.650;2022-09-21T16:08:50;100786.44;;;50.11;11.49
63347;BME280;49472;49.880;8.650;2022-09-21T16:10:51;100777.91;;;50.89;11.28